ENTO

Sandefjord Torp Airport

Torp, Norway
METAR ENTO 260320Z AUTO 36005KT 9999 NCD M12/M14 Q1042
Observed Flight Rules
Feb-26 @ 03:20 UTC (10 minutes ago) Visual Flight Rules
Wind Visibility Clouds
360° at 5 knots 10,000+ meters
  • Clear skies
Temperatures Readings
Current -12°C / 10°F
Dewpoint -14°C / 7°F
Humidity 85%
Altimeter 30.77" Hg
Pressure 1042 hPa
Elevation 88
METAR ENTO 260320Z AUTO 36005KT 9999 NCD M12/M14 Q1042
Observed Flight Rules
Feb-26 @ 03:20 UTC
(10 minutes ago)
VFR
Wind Visibility
360° at 5 knots 10,000+ meters
Clouds
  • Clear skies
Temperature Dewpoint
-12°C / 10°F -14°C / 7°F
Humidity Altimeter Pressure
85% 30.77" Hg 1042 hPa